Terminal Aerodrome Forecast
Issued by NWS Cleveland, OH

Home | Current Version | Previous Version | Graphics & Text | Print | Product List | Glossary Off
Versions: 1 2 3 4 5 6 7 8 9 10 11 12 13 14 15 16 17 18 19 20 21

000
FTUS41 KCLE 290528
TAFCAK
TAF
KCAK 290528Z 2906/3006 24010KT P6SM OVC060
      TEMPO 2906/2907 5SM -TSRA OVC025CB
     FM290700 24006KT P6SM OVC070
     FM291000 25009KT P6SM SCT120
     FM292200 25009KT P6SM VCTS SCT035CB BKN120
     FM300200 22006KT P6SM SCT150=

USA.gov is the U.S. government's official web portal to all federal, state and local government web resources and services.